sensor_id;sensor_type;location;lat;lon;timestamp;pressure;altitude;pressure_sealevel;temperature;humidity
29163;BME280;20331;53.144;8.208;2022-11-15T00:03:44;100467.44;;;7.16;97.24
29163;BME280;20331;53.144;8.208;2022-11-15T00:14:05;100463.72;;;7.06;98.25
29163;BME280;20331;53.144;8.208;2022-11-15T00:24:27;100464.31;;;6.96;98.47
29163;BME280;20331;53.144;8.208;2022-11-15T00:34:48;100462.13;;;6.88;98.68
29163;BME280;20331;53.144;8.208;2022-11-15T00:45:10;100463.31;;;6.83;98.89
29163;BME280;20331;53.144;8.208;2022-11-15T00:55:31;100464.50;;;6.77;98.93
29163;BME280;20331;53.144;8.208;2022-11-15T01:05:53;100466.09;;;6.65;99.60
29163;BME280;20331;53.144;8.208;2022-11-15T01:16:16;100459.13;;;6.50;99.66
29163;BME280;20331;53.144;8.208;2022-11-15T01:26:39;100451.13;;;6.39;99.90
29163;BME280;20331;53.144;8.208;2022-11-15T01:37:01;100425.88;;;6.27;99.99
29163;BME280;20331;53.144;8.208;2022-11-15T01:47:35;100424.69;;;6.17;100.00
29163;BME280;20331;53.144;8.208;2022-11-15T01:58:01;100407.84;;;6.10;100.00
29163;BME280;20331;53.144;8.208;2022-11-15T02:08:25;100399.91;;;6.13;100.00
29163;BME280;20331;53.144;8.208;2022-11-15T02:19:02;100375.06;;;6.26;100.00
29163;BME280;20331;53.144;8.208;2022-11-15T02:40:34;100381.47;;;6.50;100.00
29163;BME280;20331;53.144;8.208;2022-11-15T02:51:00;100364.50;;;6.60;100.00
29163;BME280;20331;53.144;8.208;2022-11-15T03:11:58;100371.91;;;6.81;100.00
29163;BME280;20331;53.144;8.208;2022-11-15T03:22:23;100375.56;;;6.92;99.99
29163;BME280;20331;53.144;8.208;2022-11-15T03:32:54;100361.16;;;7.02;99.87
29163;BME280;20331;53.144;8.208;2022-11-15T03:43:54;100348.41;;;7.13;100.00
29163;BME280;20331;53.144;8.208;2022-11-15T03:54:18;100346.97;;;7.23;100.00
29163;BME280;20331;53.144;8.208;2022-11-15T04:04:39;100348.00;;;7.35;100.00
29163;BME280;20331;53.144;8.208;2022-11-15T04:15:09;100346.59;;;7.43;100.00
29163;BME280;20331;53.144;8.208;2022-11-15T04:25:31;100340.13;;;7.50;100.00
29163;BME280;20331;53.144;8.208;2022-11-15T04:35:52;100348.22;;;7.60;100.00
29163;BME280;20331;53.144;8.208;2022-11-15T04:46:32;100353.56;;;7.70;99.88
29163;BME280;20331;53.144;8.208;2022-11-15T04:56:54;100349.59;;;7.79;100.00
29163;BME280;20331;53.144;8.208;2022-11-15T05:07:15;100348.84;;;7.91;99.83
29163;BME280;20331;53.144;8.208;2022-11-15T05:17:37;100340.50;;;8.00;100.00
29163;BME280;20331;53.144;8.208;2022-11-15T05:27:58;100337.88;;;8.14;100.00
29163;BME280;20331;53.144;8.208;2022-11-15T05:38:20;100324.53;;;8.20;100.00
29163;BME280;20331;53.144;8.208;2022-11-15T05:48:45;100319.50;;;8.31;100.00
29163;BME280;20331;53.144;8.208;2022-11-15T05:59:08;100335.44;;;8.39;100.00
29163;BME280;20331;53.144;8.208;2022-11-15T06:09:30;100332.66;;;8.42;100.00
29163;BME280;20331;53.144;8.208;2022-11-15T06:19:52;100337.13;;;8.52;100.00
29163;BME280;20331;53.144;8.208;2022-11-15T06:30:13;100340.84;;;8.62;100.00
29163;BME280;20331;53.144;8.208;2022-11-15T06:40:36;100328.78;;;8.73;100.00
29163;BME280;20331;53.144;8.208;2022-11-15T06:51:00;100348.06;;;8.83;100.00
29163;BME280;20331;53.144;8.208;2022-11-15T07:01:22;100362.13;;;8.93;100.00
29163;BME280;20331;53.144;8.208;2022-11-15T07:11:44;100369.53;;;8.99;100.00
29163;BME280;20331;53.144;8.208;2022-11-15T07:22:05;100373.94;;;9.11;100.00
29163;BME280;20331;53.144;8.208;2022-11-15T07:32:27;100357.50;;;9.23;100.00
29163;BME280;20331;53.144;8.208;2022-11-15T07:42:48;100370.63;;;9.34;100.00
29163;BME280;20331;53.144;8.208;2022-11-15T07:53:17;100366.91;;;9.38;100.00
29163;BME280;20331;53.144;8.208;2022-11-15T08:03:38;100353.16;;;9.36;100.00
29163;BME280;20331;53.144;8.208;2022-11-15T08:14:00;100347.75;;;9.39;100.00
29163;BME280;20331;53.144;8.208;2022-11-15T08:24:21;100356.09;;;9.44;100.00
29163;BME280;20331;53.144;8.208;2022-11-15T08:34:43;100353.38;;;9.58;100.00
29163;BME280;20331;53.144;8.208;2022-11-15T08:45:05;100360.44;;;9.68;100.00
29163;BME280;20331;53.144;8.208;2022-11-15T08:55:26;100369.50;;;9.75;100.00
29163;BME280;20331;53.144;8.208;2022-11-15T09:05:48;100374.19;;;9.83;100.00
29163;BME280;20331;53.144;8.208;2022-11-15T09:16:09;100363.38;;;9.89;100.00
29163;BME280;20331;53.144;8.208;2022-11-15T09:26:33;100352.00;;;10.02;100.00
29163;BME280;20331;53.144;8.208;2022-11-15T09:36:54;100353.66;;;10.16;100.00
29163;BME280;20331;53.144;8.208;2022-11-15T09:47:25;100358.94;;;10.27;100.00
29163;BME280;20331;53.144;8.208;2022-11-15T09:58:03;100349.31;;;10.40;100.00
29163;BME280;20331;53.144;8.208;2022-11-15T10:19:35;100322.56;;;10.95;99.45
29163;BME280;20331;53.144;8.208;2022-11-15T10:30:00;100320.25;;;11.14;99.04
29163;BME280;20331;53.144;8.208;2022-11-15T10:40:23;100309.59;;;11.28;99.14
29163;BME280;20331;53.144;8.208;2022-11-15T10:50:46;100288.28;;;11.34;98.82
29163;BME280;20331;53.144;8.208;2022-11-15T11:01:20;100274.38;;;11.45;98.23
29163;BME280;20331;53.144;8.208;2022-11-15T11:11:48;100256.25;;;11.65;97.37
29163;BME280;20331;53.144;8.208;2022-11-15T11:22:34;100248.19;;;11.79;97.39
29163;BME280;20331;53.144;8.208;2022-11-15T11:54:12;100242.53;;;12.16;95.66
29163;BME280;20331;53.144;8.208;2022-11-15T12:04:38;100230.03;;;12.31;94.54
29163;BME280;20331;53.144;8.208;2022-11-15T12:15:14;100206.97;;;12.36;94.06
29163;BME280;20331;53.144;8.208;2022-11-15T12:25:51;100202.41;;;12.48;93.10
29163;BME280;20331;53.144;8.208;2022-11-15T12:46:58;100180.31;;;12.82;89.29
29163;BME280;20331;53.144;8.208;2022-11-15T12:57:35;100170.88;;;12.70;88.22
29163;BME280;20331;53.144;8.208;2022-11-15T13:07:58;100167.00;;;12.65;87.78
29163;BME280;20331;53.144;8.208;2022-11-15T13:18:33;100181.16;;;12.62;86.57
29163;BME280;20331;53.144;8.208;2022-11-15T13:28:55;100187.13;;;12.74;85.51
29163;BME280;20331;53.144;8.208;2022-11-15T13:49:45;100161.13;;;12.93;83.21
29163;BME280;20331;53.144;8.208;2022-11-15T14:00:22;100166.56;;;12.80;78.33
29163;BME280;20331;53.144;8.208;2022-11-15T14:10:45;100147.41;;;12.59;83.31
29163;BME280;20331;53.144;8.208;2022-11-15T14:21:07;100144.66;;;12.41;84.84
29163;BME280;20331;53.144;8.208;2022-11-15T14:31:29;100141.41;;;12.28;85.01
29163;BME280;20331;53.144;8.208;2022-11-15T14:41:51;100139.63;;;12.08;86.15
29163;BME280;20331;53.144;8.208;2022-11-15T15:02:51;100099.38;;;11.68;87.79
29163;BME280;20331;53.144;8.208;2022-11-15T15:13:22;100099.28;;;11.48;87.84
29163;BME280;20331;53.144;8.208;2022-11-15T15:23:44;100081.31;;;11.23;88.94
29163;BME280;20331;53.144;8.208;2022-11-15T15:34:05;100070.09;;;11.00;90.17
29163;BME280;20331;53.144;8.208;2022-11-15T15:44:32;100058.13;;;10.76;91.42
29163;BME280;20331;53.144;8.208;2022-11-15T15:54:53;100055.41;;;10.55;91.35
29163;BME280;20331;53.144;8.208;2022-11-15T16:05:15;100061.91;;;10.39;91.32
29163;BME280;20331;53.144;8.208;2022-11-15T16:15:37;100052.03;;;10.21;90.43
29163;BME280;20331;53.144;8.208;2022-11-15T16:25:58;100035.66;;;10.08;91.47
29163;BME280;20331;53.144;8.208;2022-11-15T16:36:25;100032.59;;;10.03;91.72
29163;BME280;20331;53.144;8.208;2022-11-15T16:46:51;100025.94;;;9.99;91.19
29163;BME280;20331;53.144;8.208;2022-11-15T16:57:13;100009.34;;;9.89;91.90
29163;BME280;20331;53.144;8.208;2022-11-15T17:07:34;100008.13;;;9.82;91.90
29163;BME280;20331;53.144;8.208;2022-11-15T17:17:56;100000.09;;;9.85;92.52
29163;BME280;20331;53.144;8.208;2022-11-15T17:28:17;99990.13;;;9.90;92.48
29163;BME280;20331;53.144;8.208;2022-11-15T17:38:43;99991.56;;;9.94;93.09
29163;BME280;20331;53.144;8.208;2022-11-15T17:49:04;99979.56;;;10.04;93.44
29163;BME280;20331;53.144;8.208;2022-11-15T17:59:26;99983.84;;;10.16;93.58
29163;BME280;20331;53.144;8.208;2022-11-15T18:09:47;99974.38;;;10.26;94.48
29163;BME280;20331;53.144;8.208;2022-11-15T18:20:09;99963.00;;;10.38;94.00
29163;BME280;20331;53.144;8.208;2022-11-15T18:30:31;99948.56;;;10.45;94.53
29163;BME280;20331;53.144;8.208;2022-11-15T18:40:52;99945.72;;;10.48;94.73
29163;BME280;20331;53.144;8.208;2022-11-15T18:51:16;99930.78;;;10.50;94.80
29163;BME280;20331;53.144;8.208;2022-11-15T19:01:40;99919.88;;;10.55;94.88
29163;BME280;20331;53.144;8.208;2022-11-15T19:12:01;99904.13;;;10.57;95.12
29163;BME280;20331;53.144;8.208;2022-11-15T19:22:23;99911.84;;;10.58;95.21
29163;BME280;20331;53.144;8.208;2022-11-15T19:32:45;99911.47;;;10.63;95.29
29163;BME280;20331;53.144;8.208;2022-11-15T19:43:06;99899.25;;;10.63;95.49
29163;BME280;20331;53.144;8.208;2022-11-15T19:53:29;99892.75;;;10.69;95.45
29163;BME280;20331;53.144;8.208;2022-11-15T20:03:57;99886.69;;;10.68;95.34
29163;BME280;20331;53.144;8.208;2022-11-15T20:14:19;99872.94;;;10.66;95.16
29163;BME280;20331;53.144;8.208;2022-11-15T20:24:41;99867.72;;;10.66;95.53
29163;BME280;20331;53.144;8.208;2022-11-15T20:35:03;99870.81;;;10.71;94.99
29163;BME280;20331;53.144;8.208;2022-11-15T20:45:24;99858.97;;;10.67;95.34
29163;BME280;20331;53.144;8.208;2022-11-15T20:55:47;99850.44;;;10.65;95.14
29163;BME280;20331;53.144;8.208;2022-11-15T21:06:10;99840.97;;;10.64;94.54
29163;BME280;20331;53.144;8.208;2022-11-15T21:16:31;99831.50;;;10.63;94.89
29163;BME280;20331;53.144;8.208;2022-11-15T21:26:53;99820.00;;;10.66;94.31
29163;BME280;20331;53.144;8.208;2022-11-15T21:37:15;99814.09;;;10.64;94.15
29163;BME280;20331;53.144;8.208;2022-11-15T21:47:37;99811.34;;;10.65;94.25
29163;BME280;20331;53.144;8.208;2022-11-15T21:58:05;99796.41;;;10.67;93.97
29163;BME280;20331;53.144;8.208;2022-11-15T22:08:27;99789.78;;;10.63;94.22
29163;BME280;20331;53.144;8.208;2022-11-15T22:18:49;99777.72;;;10.62;94.16
29163;BME280;20331;53.144;8.208;2022-11-15T22:29:10;99768.25;;;10.61;94.26
29163;BME280;20331;53.144;8.208;2022-11-15T22:39:31;99766.34;;;10.63;94.05
29163;BME280;20331;53.144;8.208;2022-11-15T22:49:53;99753.06;;;10.66;94.39
29163;BME280;20331;53.144;8.208;2022-11-15T23:00:15;99748.94;;;10.64;94.51
29163;BME280;20331;53.144;8.208;2022-11-15T23:10:37;99743.00;;;10.62;94.51
29163;BME280;20331;53.144;8.208;2022-11-15T23:21:38;99742.63;;;10.66;94.34
29163;BME280;20331;53.144;8.208;2022-11-15T23:32:19;99732.72;;;10.60;94.37
29163;BME280;20331;53.144;8.208;2022-11-15T23:42:59;99730.78;;;10.62;94.42
29163;BME280;20331;53.144;8.208;2022-11-15T23:53:21;99719.00;;;10.58;94.63
